Time;durP1;ratioP1;P1;durP2;ratioP2;P2;SDS_P1;SDS_P2;PMS_P1;PMS_P2;Temp;Humidity;BMP_temperature;BMP_pressure;BME280_temperature;BME280_humidity;BME280_pressure;Samples;Min_cycle;Max_cycle;Signal;HPM_P1;HPM_P2
2022/05/05 00:00:10;;;;;;;1.80;1.27;;;11.70;99.90;;;;;;5013790;28;20484;-80
2022/05/05 00:02:37;;;;;;;0.73;0.40;;;11.70;99.90;;;;;;5012744;28;20459;-80
2022/05/05 00:05:06;;;;;;;0.90;0.70;;;11.70;99.90;;;;;;5012769;28;20451;-80
2022/05/05 00:07:32;;;;;;;1.40;0.53;;;11.70;99.90;;;;;;5012796;28;20927;-80
2022/05/05 00:14:23;;;;;;;0.77;0.70;;;11.70;99.90;;;;;;5013065;28;20463;-80
2022/05/05 00:15:30;;;;;;;0.80;0.70;;;11.70;99.90;;;;;;5012731;28;20443;-80
2022/05/05 00:17:57;;;;;;;0.73;0.60;;;11.60;99.90;;;;;;5012641;28;21124;-80
2022/05/05 00:20:25;;;;;;;1.00;0.50;;;11.60;99.90;;;;;;5012839;28;20474;-80
2022/05/05 00:22:51;;;;;;;0.93;0.80;;;11.60;99.90;;;;;;5012694;28;20982;-80
2022/05/05 00:25:18;;;;;;;0.60;0.60;;;11.50;99.90;;;;;;5012917;28;20478;-80
2022/05/05 00:27:45;;;;;;;1.37;1.27;;;11.50;99.90;;;;;;5012848;28;20454;-80
2022/05/05 00:30:12;;;;;;;1.07;0.83;;;11.50;99.90;;;;;;5012855;28;20479;-80
2022/05/05 00:32:39;;;;;;;2.80;0.80;;;11.50;99.90;;;;;;5012651;28;20432;-80
2022/05/05 00:35:06;;;;;;;1.33;0.60;;;11.50;99.90;;;;;;5012858;28;20506;-80
2022/05/05 00:37:34;;;;;;;0.60;0.60;;;11.50;99.90;;;;;;5013263;28;20483;-80
2022/05/05 00:40:01;;;;;;;1.50;0.50;;;11.50;99.90;;;;;;5012998;28;20549;-80
2022/05/05 00:42:28;;;;;;;0.70;0.70;;;11.50;99.90;;;;;;5016342;28;20510;-80
2022/05/05 00:44:54;;;;;;;4.30;0.80;;;11.60;99.90;;;;;;5016260;28;20459;-80
2022/05/05 00:47:22;;;;;;;0.50;0.50;;;11.60;99.90;;;;;;5016217;28;20447;-80
2022/05/05 00:49:50;;;;;;;1.97;0.77;;;11.60;99.90;;;;;;5016089;28;20479;-80
2022/05/05 00:52:16;;;;;;;0.70;0.60;;;11.50;99.90;;;;;;5016082;28;20505;-80
2022/05/05 00:54:44;;;;;;;1.70;1.00;;;11.50;99.90;;;;;;5016094;28;20455;-80
2022/05/05 00:57:14;;;;;;;1.97;0.70;;;11.50;99.90;;;;;;5015614;28;21028;-80
2022/05/05 00:59:43;;;;;;;1.20;0.70;;;11.50;99.90;;;;;;5015923;28;20476;-80
2022/05/05 01:02:09;;;;;;;1.80;1.17;;;11.50;99.90;;;;;;5016014;28;20455;-80
2022/05/05 01:04:37;;;;;;;2.20;0.80;;;11.40;99.90;;;;;;5015870;28;20458;-79
2022/05/05 01:07:05;;;;;;;1.47;0.53;;;11.40;99.90;;;;;;5015604;28;20467;-80
2022/05/05 01:09:32;;;;;;;1.77;1.30;;;11.40;99.90;;;;;;5015740;28;20479;-80
2022/05/05 01:12:02;;;;;;;0.73;0.73;;;11.30;99.90;;;;;;5015766;28;20494;-80
2022/05/05 01:14:29;;;;;;;0.77;0.77;;;11.20;99.90;;;;;;5015871;28;20808;-79
2022/05/05 01:16:56;;;;;;;2.23;1.00;;;11.20;99.90;;;;;;5015291;28;20479;-80
2022/05/05 01:19:22;;;;;;;0.83;0.60;;;11.10;99.90;;;;;;5015601;28;20475;-80
2022/05/05 01:21:54;;;;;;;0.83;0.83;;;11.10;99.90;;;;;;5015560;28;20455;-80
2022/05/05 01:28:10;;;;;;;0.70;0.50;;;11.00;99.90;;;;;;5015552;28;20431;-80
2022/05/05 01:29:55;;;;;;;1.23;0.90;;;11.00;99.90;;;;;;5015157;28;20454;-80
2022/05/05 01:32:22;;;;;;;0.80;0.80;;;11.00;99.90;;;;;;5015345;28;20460;-80
2022/05/05 01:34:49;;;;;;;1.17;0.50;;;11.00;99.90;;;;;;5015361;28;20455;-80
2022/05/05 01:37:17;;;;;;;0.87;0.70;;;10.90;99.90;;;;;;5015235;28;20479;-79
2022/05/05 01:39:43;;;;;;;2.93;0.67;;;10.90;99.90;;;;;;5014730;28;20966;-80
2022/05/05 01:42:10;;;;;;;0.40;0.40;;;10.80;99.90;;;;;;5014817;28;20968;-80
2022/05/05 01:44:37;;;;;;;0.60;0.50;;;10.80;99.90;;;;;;5014972;28;20440;-80
2022/05/05 01:47:04;;;;;;;0.47;0.47;;;10.80;99.90;;;;;;5014948;28;20440;-79
2022/05/05 01:49:31;;;;;;;0.50;0.50;;;10.70;99.90;;;;;;5014795;28;20460;-80
2022/05/05 01:51:57;;;;;;;1.33;0.70;;;10.70;99.90;;;;;;5013991;28;20435;-80
2022/05/05 01:54:25;;;;;;;0.50;0.50;;;10.70;99.90;;;;;;5015012;28;20854;-80
2022/05/05 01:56:52;;;;;;;0.70;0.70;;;10.70;99.90;;;;;;5014874;28;20487;-80
2022/05/05 01:59:19;;;;;;;1.23;1.13;;;10.70;99.90;;;;;;5014403;28;20476;-80
2022/05/05 02:01:46;;;;;;;0.87;0.57;;;10.70;99.90;;;;;;5014845;28;20443;-80
2022/05/05 02:04:12;;;;;;;1.73;0.70;;;10.70;99.90;;;;;;5014864;28;20888;-80
2022/05/05 02:06:39;;;;;;;0.80;0.60;;;10.70;99.90;;;;;;5014687;28;20456;-80
2022/05/05 02:09:06;;;;;;;0.40;0.40;;;10.70;99.90;;;;;;5014368;28;20462;-79
2022/05/05 02:11:35;;;;;;;1.20;1.10;;;10.70;99.90;;;;;;5014668;28;20569;-80
2022/05/05 02:14:04;;;;;;;0.90;0.50;;;10.60;99.90;;;;;;5014630;28;20455;-80
2022/05/05 02:16:30;;;;;;;2.83;0.70;;;10.60;99.90;;;;;;5014513;28;20467;-79
2022/05/05 02:18:57;;;;;;;1.70;0.90;;;10.60;99.90;;;;;;5014376;28;20463;-80
2022/05/05 02:21:24;;;;;;;0.70;0.53;;;10.60;99.90;;;;;;5014447;28;20455;-80
2022/05/05 02:23:50;;;;;;;0.80;0.60;;;10.60;99.90;;;;;;5014384;28;20455;-80
2022/05/05 02:26:17;;;;;;;0.90;0.70;;;10.60;99.90;;;;;;5014377;28;20451;-80
2022/05/05 02:28:45;;;;;;;0.50;0.40;;;10.50;99.90;;;;;;5014304;28;20805;-80
2022/05/05 02:31:12;;;;;;;1.80;0.60;;;10.50;99.90;;;;;;5014206;28;20454;-80
2022/05/05 02:33:38;;;;;;;0.70;0.70;;;10.50;99.90;;;;;;5013986;28;20435;-79
2022/05/05 02:38:50;;;;;;;0.93;0.50;;;10.50;99.90;;;;;;5014197;28;20553;-80
2022/05/05 02:41:17;;;;;;;0.53;0.53;;;10.50;99.90;;;;;;5013689;28;20484;-80
2022/05/05 02:43:45;;;;;;;0.50;0.40;;;10.50;99.90;;;;;;5013724;28;20451;-80
2022/05/05 02:46:12;;;;;;;1.67;0.60;;;10.40;99.90;;;;;;5014034;28;20447;-80
2022/05/05 02:48:38;;;;;;;0.50;0.40;;;10.40;99.90;;;;;;5013921;28;20466;-80
2022/05/05 02:51:05;;;;;;;1.03;0.93;;;10.40;99.90;;;;;;5013836;28;20514;-79
2022/05/05 02:56:16;;;;;;;0.53;0.53;;;10.50;99.90;;;;;;5013992;28;20454;-80
2022/05/05 02:58:44;;;;;;;1.53;0.80;;;10.50;99.90;;;;;;5013540;28;21041;-80
2022/05/05 03:01:11;;;;;;;1.73;0.80;;;10.50;99.90;;;;;;5013568;28;20459;-80
2022/05/05 03:03:38;;;;;;;0.50;0.50;;;10.50;99.90;;;;;;5013380;28;20451;-80
2022/05/05 03:06:05;;;;;;;0.50;0.50;;;10.50;99.90;;;;;;5013689;28;20455;-80
2022/05/05 03:08:32;;;;;;;0.60;0.60;;;10.50;99.90;;;;;;5013358;28;20440;-79
2022/05/05 03:10:58;;;;;;;2.30;0.80;;;10.50;99.90;;;;;;5013676;28;20451;-80
2022/05/05 03:13:25;;;;;;;7.00;1.27;;;10.50;99.90;;;;;;5013620;28;20459;-80
2022/05/05 03:15:53;;;;;;;1.53;0.80;;;10.50;99.90;;;;;;5013606;28;20470;-80
2022/05/05 03:18:20;;;;;;;2.40;0.73;;;10.60;99.90;;;;;;5013107;28;20483;-80
2022/05/05 03:20:46;;;;;;;0.70;0.53;;;10.60;99.90;;;;;;5013524;28;20448;-80
2022/05/05 03:23:13;;;;;;;0.83;0.73;;;10.60;99.90;;;;;;5013517;28;20463;-80
2022/05/05 03:25:40;;;;;;;1.40;1.00;;;10.70;99.90;;;;;;5013475;28;20447;-80
2022/05/05 03:28:07;;;;;;;3.80;0.80;;;10.70;99.90;;;;;;5013149;28;20446;-80
2022/05/05 03:30:34;;;;;;;1.13;0.80;;;10.70;99.90;;;;;;5013601;28;20793;-80
2022/05/05 03:33:02;;;;;;;0.60;0.57;;;10.70;99.90;;;;;;5013455;28;20505;-80
2022/05/05 03:35:28;;;;;;;2.87;0.83;;;10.70;99.90;;;;;;5013363;28;20452;-80
2022/05/05 03:37:55;;;;;;;1.13;0.80;;;10.70;99.90;;;;;;5013356;28;20486;-80
2022/05/05 03:40:22;;;;;;;0.50;0.50;;;10.70;99.90;;;;;;5012984;28;20570;-80
2022/05/05 03:42:49;;;;;;;0.70;0.70;;;10.70;99.90;;;;;;5013386;28;20450;-80
2022/05/05 03:45:15;;;;;;;0.73;0.73;;;10.70;99.90;;;;;;5012997;28;20969;-79
2022/05/05 03:47:42;;;;;;;0.60;0.50;;;10.70;99.90;;;;;;5013360;28;20443;-80
2022/05/05 03:50:11;;;;;;;0.77;0.50;;;10.70;99.90;;;;;;5013188;28;20463;-80
2022/05/05 03:52:37;;;;;;;0.30;0.30;;;10.70;99.90;;;;;;5013047;28;20810;-80
2022/05/05 03:55:05;;;;;;;0.50;0.50;;;10.70;99.90;;;;;;5013263;28;20798;-79
2022/05/05 03:57:33;;;;;;;0.80;0.50;;;10.70;99.90;;;;;;5013193;28;20463;-80
2022/05/05 04:00:00;;;;;;;1.20;0.93;;;10.70;99.90;;;;;;5013152;28;20479;-80
2022/05/05 04:02:27;;;;;;;1.97;0.80;;;10.70;99.90;;;;;;5013196;28;20447;-80
2022/05/05 04:04:54;;;;;;;0.97;0.50;;;10.70;99.90;;;;;;5012823;28;20821;-80
2022/05/05 04:07:22;;;;;;;0.63;0.63;;;10.80;99.90;;;;;;5013106;28;20873;-80
2022/05/05 04:09:49;;;;;;;0.60;0.60;;;10.70;99.90;;;;;;5013044;28;20471;-80
2022/05/05 04:12:15;;;;;;;1.07;0.53;;;10.70;99.90;;;;;;5012856;28;20478;-80
2022/05/05 04:14:42;;;;;;;1.63;0.70;;;10.70;99.90;;;;;;5012998;28;20447;-80
2022/05/05 04:17:08;;;;;;;0.90;0.70;;;10.70;99.90;;;;;;5016789;28;20455;-80
2022/05/05 04:19:36;;;;;;;1.10;0.63;;;10.70;99.90;;;;;;5016670;28;20471;-79
2022/05/05 04:22:03;;;;;;;0.53;0.50;;;10.70;99.90;;;;;;5016717;28;20542;-80
2022/05/05 04:24:31;;;;;;;3.10;0.57;;;10.70;99.90;;;;;;5016686;28;20482;-80
2022/05/05 04:26:58;;;;;;;2.10;0.90;;;10.80;99.90;;;;;;5016656;28;20459;-80
2022/05/05 04:29:25;;;;;;;0.83;0.77;;;10.80;99.90;;;;;;5016254;28;20467;-80
2022/05/05 04:31:52;;;;;;;0.90;0.90;;;10.90;99.90;;;;;;5016500;28;20447;-80
2022/05/05 04:34:20;;;;;;;0.93;0.60;;;10.90;99.90;;;;;;5016535;28;20462;-80
2022/05/05 04:36:47;;;;;;;1.83;0.80;;;10.90;99.90;;;;;;5016709;28;20456;-80
2022/05/05 04:39:14;;;;;;;0.60;0.60;;;10.90;99.90;;;;;;5015974;28;20491;-80
2022/05/05 04:41:42;;;;;;;2.20;0.87;;;11.00;99.90;;;;;;5016388;28;20447;-80
2022/05/05 04:44:08;;;;;;;1.33;0.70;;;11.00;99.90;;;;;;5016300;28;20455;-80
2022/05/05 04:46:35;;;;;;;0.83;0.80;;;10.90;99.90;;;;;;5016223;28;20455;-80
2022/05/05 04:49:02;;;;;;;0.90;0.60;;;10.90;99.90;;;;;;5015903;28;20464;-80
2022/05/05 04:51:28;;;;;;;2.27;1.23;;;10.90;99.90;;;;;;5015872;28;20505;-80
2022/05/05 04:53:55;;;;;;;0.80;0.60;;;10.90;99.90;;;;;;5016152;28;20451;-80
2022/05/05 04:56:22;;;;;;;0.83;0.63;;;11.00;99.90;;;;;;5015992;28;20462;-80
2022/05/05 04:58:50;;;;;;;0.90;0.80;;;11.00;99.90;;;;;;5015830;28;20495;-80
2022/05/05 05:01:16;;;;;;;1.70;1.07;;;11.00;99.90;;;;;;5015967;28;20462;-80
2022/05/05 05:03:43;;;;;;;1.10;1.10;;;11.10;99.90;;;;;;5015627;28;20436;-80
2022/05/05 05:06:10;;;;;;;0.60;0.60;;;11.10;99.90;;;;;;5015847;28;20454;-80
2022/05/05 05:08:38;;;;;;;0.70;0.60;;;11.20;99.90;;;;;;5015526;28;20455;-80
2022/05/05 05:11:05;;;;;;;0.60;0.60;;;11.20;99.90;;;;;;5015809;28;20452;-80
2022/05/05 05:13:32;;;;;;;0.60;0.60;;;11.20;99.90;;;;;;5015726;28;20455;-80
2022/05/05 05:16:00;;;;;;;0.87;0.67;;;11.30;99.90;;;;;;5015631;28;20454;-80
2022/05/05 05:18:26;;;;;;;0.87;0.80;;;11.30;99.90;;;;;;5015425;28;20487;-80
2022/05/05 05:20:53;;;;;;;1.80;1.27;;;11.30;99.90;;;;;;5015291;28;20474;-80
2022/05/05 05:23:20;;;;;;;0.70;0.70;;;11.40;99.90;;;;;;5015303;28;20805;-80
2022/05/05 05:25:47;;;;;;;2.50;0.67;;;11.40;99.90;;;;;;5015330;28;20455;-80
2022/05/05 05:28:13;;;;;;;2.23;0.87;;;11.40;99.90;;;;;;5015766;28;20489;-80
2022/05/05 05:30:40;;;;;;;0.70;0.70;;;11.40;99.90;;;;;;5015057;28;20471;-80
2022/05/05 05:33:09;;;;;;;0.57;0.57;;;11.50;99.90;;;;;;5015225;28;20466;-80
2022/05/05 05:35:36;;;;;;;2.50;0.80;;;11.50;99.90;;;;;;5015326;28;20451;-80
2022/05/05 05:38:02;;;;;;;0.90;0.90;;;11.60;99.90;;;;;;5015188;28;20487;-80
2022/05/05 05:40:29;;;;;;;1.43;0.77;;;11.60;99.90;;;;;;5014881;28;20538;-80
2022/05/05 05:42:56;;;;;;;0.90;0.50;;;11.70;99.90;;;;;;5015210;28;20455;-80
2022/05/05 05:45:23;;;;;;;1.33;1.07;;;11.80;99.90;;;;;;5015178;28;20542;-80
2022/05/05 05:47:49;;;;;;;1.30;0.77;;;11.90;99.90;;;;;;5015130;28;20460;-80
2022/05/05 05:50:18;;;;;;;1.60;0.83;;;12.00;99.90;;;;;;5014987;28;20471;-80
2022/05/05 05:52:45;;;;;;;0.87;0.43;;;12.10;99.90;;;;;;5014775;28;20805;-80
2022/05/05 05:55:12;;;;;;;1.73;0.43;;;12.20;99.90;;;;;;5014961;28;20627;-80
2022/05/05 05:57:38;;;;;;;0.80;0.63;;;12.30;99.90;;;;;;5015305;28;20482;-80
2022/05/05 06:00:07;;;;;;;1.67;1.00;;;12.40;99.90;;;;;;5014491;28;20494;-80
2022/05/05 06:05:19;;;;;;;0.50;0.50;;;12.60;99.90;;;;;;5014899;28;20768;-80
2022/05/05 06:07:45;;;;;;;1.03;0.90;;;12.60;99.90;;;;;;5014741;28;20467;-80
2022/05/05 06:10:12;;;;;;;0.70;0.70;;;12.70;99.90;;;;;;5014621;28;20467;-80
2022/05/05 06:12:39;;;;;;;0.80;0.70;;;12.80;99.90;;;;;;5014397;28;20447;-80
2022/05/05 06:15:06;;;;;;;0.83;0.50;;;12.90;99.90;;;;;;5014650;28;20436;-80
2022/05/05 06:17:34;;;;;;;0.90;0.80;;;12.90;99.90;;;;;;5015104;28;20447;-80
2022/05/05 06:20:01;;;;;;;1.30;1.03;;;13.00;99.90;;;;;;5014422;28;20491;-80
2022/05/05 06:22:29;;;;;;;1.60;1.30;;;13.00;99.90;;;;;;5014497;28;20447;-83
2022/05/05 06:24:56;;;;;;;0.87;0.50;;;12.90;99.90;;;;;;5014505;28;20435;-80
2022/05/05 06:27:23;;;;;;;1.00;0.90;;;12.90;99.90;;;;;;5014396;28;20506;-80
2022/05/05 06:29:49;;;;;;;0.93;0.60;;;12.90;99.90;;;;;;5014323;28;20463;-80
2022/05/05 06:32:17;;;;;;;1.20;0.80;;;12.80;99.90;;;;;;5014323;28;20447;-80
2022/05/05 06:34:43;;;;;;;0.50;0.50;;;12.80;99.90;;;;;;5014240;28;20857;-79
2022/05/05 06:40:18;;;;;;;0.70;0.57;;;12.80;99.90;;;;;;5012174;28;20527;-79
2022/05/05 06:42:45;;;;;;;0.60;0.60;;;12.80;99.90;;;;;;5013839;28;20451;-79
2022/05/05 06:45:12;;;;;;;1.20;0.90;;;12.80;99.90;;;;;;5014163;28;20440;-80
2022/05/05 06:47:38;;;;;;;0.77;0.77;;;12.80;99.90;;;;;;5013611;28;20876;-80
2022/05/05 06:50:06;;;;;;;0.97;0.97;;;12.80;99.90;;;;;;5013941;28;20506;-80
2022/05/05 06:52:34;;;;;;;2.60;0.70;;;12.70;99.90;;;;;;5013809;28;20502;-80
2022/05/05 06:55:01;;;;;;;0.47;0.47;;;12.70;99.90;;;;;;5013915;28;20454;-80
2022/05/05 06:57:27;;;;;;;1.17;0.70;;;12.70;99.90;;;;;;5013640;28;20978;-80
2022/05/05 06:59:54;;;;;;;0.53;0.53;;;12.70;99.90;;;;;;5013779;28;20498;-83
2022/05/05 07:02:22;;;;;;;3.40;1.13;;;12.60;99.90;;;;;;5013801;28;20460;-83
2022/05/05 07:07:34;;;;;;;0.60;0.60;;;12.60;99.90;;;;;;5013568;28;20567;-83
2022/05/05 07:12:45;;;;;;;0.87;0.77;;;12.60;99.90;;;;;;5013823;28;20518;-83
2022/05/05 07:15:13;;;;;;;1.40;0.90;;;12.60;99.90;;;;;;5013387;28;20439;-83
2022/05/05 07:17:40;;;;;;;0.60;0.60;;;12.60;99.90;;;;;;5013641;28;20505;-83
2022/05/05 07:20:08;;;;;;;1.80;0.60;;;12.60;99.90;;;;;;5013424;28;20514;-83
2022/05/05 07:22:36;;;;;;;1.17;1.10;;;12.60;99.90;;;;;;5013606;28;20455;-83
2022/05/05 07:25:04;;;;;;;1.33;1.00;;;12.70;99.90;;;;;;5013525;28;20451;-83
2022/05/05 07:27:31;;;;;;;0.60;0.60;;;12.70;99.90;;;;;;5013533;28;20490;-83
2022/05/05 07:29:57;;;;;;;0.60;0.60;;;12.70;99.90;;;;;;5013387;28;20475;-83
2022/05/05 07:32:24;;;;;;;0.50;0.50;;;12.80;99.90;;;;;;5013264;28;21028;-83
2022/05/05 07:34:51;;;;;;;0.77;0.77;;;12.80;99.90;;;;;;5013201;28;20443;-83
2022/05/05 07:37:17;;;;;;;0.70;0.60;;;12.80;99.90;;;;;;5013381;28;20463;-82
2022/05/05 07:39:45;;;;;;;0.73;0.70;;;12.90;99.90;;;;;;5012866;28;20483;-83
2022/05/05 07:42:12;;;;;;;0.90;0.60;;;12.90;99.90;;;;;;5013343;28;20645;-83
2022/05/05 07:44:39;;;;;;;0.63;0.63;;;13.00;99.90;;;;;;5013342;28;20444;-83
2022/05/05 07:47:06;;;;;;;1.93;0.67;;;13.00;99.90;;;;;;5012982;28;20995;-83
2022/05/05 07:49:33;;;;;;;2.27;2.07;;;13.00;99.90;;;;;;5014691;28;20978;-83
2022/05/05 07:52:00;;;;;;;1.00;0.83;;;13.10;99.90;;;;;;5017368;28;20455;-82
2022/05/05 07:54:37;;;;;;;1.13;0.73;;;13.20;99.90;;;;;;5017371;28;20455;-83
2022/05/05 07:57:07;;;;;;;0.70;0.70;;;13.30;99.90;;;;;;5017552;28;20447;-83
2022/05/05 07:59:34;;;;;;;0.73;0.67;;;13.40;99.90;;;;;;5016830;28;20570;-83
2022/05/05 08:02:01;;;;;;;0.60;0.60;;;13.60;99.90;;;;;;5017080;28;20459;-83
2022/05/05 08:04:27;;;;;;;0.80;0.70;;;13.80;99.90;;;;;;5017043;28;20443;-83
2022/05/05 08:06:54;;;;;;;0.83;0.53;;;14.10;99.90;;;;;;5016916;28;20427;-83
2022/05/05 08:09:21;;;;;;;1.33;0.60;;;14.40;99.90;;;;;;5016580;28;20982;-83
2022/05/05 08:11:47;;;;;;;1.17;0.80;;;14.50;99.90;;;;;;5016641;28;20471;-83
2022/05/05 08:14:15;;;;;;;0.83;0.83;;;14.70;99.90;;;;;;5016923;28;20903;-83
2022/05/05 08:16:43;;;;;;;3.83;1.00;;;15.00;99.90;;;;;;5016695;28;20424;-83
2022/05/05 08:19:09;;;;;;;1.50;1.00;;;15.20;99.90;;;;;;5016686;28;20577;-81
2022/05/05 08:21:36;;;;;;;1.30;1.20;;;15.10;99.90;;;;;;5016421;28;20911;-81
2022/05/05 08:29:32;;;;;;;2.50;1.37;;;14.80;99.90;;;;;;5016476;28;20446;-83
2022/05/05 08:31:59;;;;;;;1.43;1.00;;;14.80;99.90;;;;;;5016385;28;20495;-84
2022/05/05 08:34:26;;;;;;;5.07;1.73;;;14.70;99.90;;;;;;5016362;28;20927;-83
2022/05/05 08:36:53;;;;;;;1.87;1.73;;;14.60;99.90;;;;;;5016648;28;20443;-83
2022/05/05 08:39:20;;;;;;;2.43;2.20;;;14.50;99.90;;;;;;5016641;28;20507;-83
2022/05/05 08:41:47;;;;;;;1.27;1.07;;;14.50;99.90;;;;;;5016582;28;20462;-83
2022/05/05 08:44:14;;;;;;;1.73;0.97;;;14.60;99.90;;;;;;5016514;28;20918;-83
2022/05/05 08:46:43;;;;;;;2.23;1.20;;;14.50;99.90;;;;;;5017092;28;20546;-83
2022/05/05 08:49:10;;;;;;;2.93;1.27;;;14.60;99.90;;;;;;5017125;28;20472;-83
2022/05/05 08:51:44;;;;;;;1.83;1.43;;;14.60;99.90;;;;;;5016814;28;20454;-83
2022/05/05 08:54:16;;;;;;;1.63;1.00;;;14.50;99.90;;;;;;5016452;28;20904;-84
2022/05/05 08:56:43;;;;;;;2.70;2.03;;;14.50;99.90;;;;;;5016746;28;20531;-83
2022/05/05 08:59:11;;;;;;;1.10;1.00;;;14.40;99.90;;;;;;5018371;28;20487;-83
2022/05/05 09:01:39;;;;;;;1.00;0.80;;;14.50;99.90;;;;;;5019250;28;20448;-83
2022/05/05 09:04:08;;;;;;;1.30;0.80;;;14.40;99.90;;;;;;5016738;28;20448;-83
2022/05/05 09:06:46;;;;;;;2.13;1.40;;;14.40;99.90;;;;;;5016146;28;20498;-84
2022/05/05 09:09:29;;;;;;;1.47;1.07;;;14.40;99.90;;;;;;5016045;28;20471;-84
2022/05/05 09:12:12;;;;;;;6.47;2.10;;;14.40;99.90;;;;;;5016008;28;20459;-84
2022/05/05 09:14:41;;;;;;;1.53;1.43;;;14.30;99.90;;;;;;5016115;28;20432;-83
2022/05/05 09:17:10;;;;;;;3.20;1.33;;;14.30;99.90;;;;;;5016280;28;20455;-84
2022/05/05 09:19:41;;;;;;;1.47;1.37;;;14.20;99.90;;;;;;5015913;28;20537;-83
2022/05/05 09:22:09;;;;;;;1.80;1.00;;;14.20;99.90;;;;;;5016353;28;20446;-83
2022/05/05 09:24:36;;;;;;;3.20;1.07;;;14.20;99.90;;;;;;5016191;28;20452;-83
2022/05/05 09:27:19;;;;;;;3.97;1.00;;;14.20;99.90;;;;;;5015534;28;20432;-84
2022/05/05 09:30:11;;;;;;;3.33;0.90;;;14.00;99.90;;;;;;5015062;28;20889;-83
2022/05/05 09:32:40;;;;;;;1.40;1.30;;;14.00;99.90;;;;;;5013992;28;21001;-84
2022/05/05 09:35:12;;;;;;;1.90;1.40;;;14.10;99.90;;;;;;5016110;28;20432;-83
2022/05/05 09:37:44;;;;;;;2.70;1.27;;;14.10;99.90;;;;;;5015550;28;20453;-84
2022/05/05 09:40:13;;;;;;;1.10;0.80;;;14.10;99.90;;;;;;5015580;28;20582;-88
2022/05/05 09:42:42;;;;;;;0.93;0.80;;;14.10;99.90;;;;;;5015344;28;20443;-79
2022/05/05 09:45:17;;;;;;;3.73;1.40;;;14.00;99.90;;;;;;5015171;28;20458;-78
2022/05/05 09:47:45;;;;;;;1.83;1.60;;;14.00;99.90;;;;;;5014816;28;20509;-78
2022/05/05 09:50:16;;;;;;;2.60;2.03;;;14.00;99.90;;;;;;5014853;28;20983;-83
2022/05/05 09:58:15;;;;;;;2.80;1.50;;;13.90;99.90;;;;;;5015128;28;20543;-82
2022/05/05 10:00:45;;;;;;;6.30;1.63;;;13.90;99.90;;;;;;5014541;28;20565;-82
2022/05/05 10:06:03;;;;;;;2.77;1.37;;;13.90;99.90;;;;;;5014643;28;20406;-83
2022/05/05 10:08:37;;;;;;;3.73;1.67;;;13.80;99.90;;;;;;5014740;28;20498;-83
2022/05/05 10:11:06;;;;;;;4.93;2.03;;;13.80;99.90;;;;;;5014472;28;20424;-82
2022/05/05 10:13:36;;;;;;;3.90;1.47;;;13.80;99.90;;;;;;5013697;28;20486;-82
2022/05/05 10:16:04;;;;;;;2.50;1.00;;;13.70;99.90;;;;;;5014727;28;20471;-82
2022/05/05 10:18:35;;;;;;;2.57;1.70;;;13.80;99.90;;;;;;5014754;28;20436;-82
2022/05/05 10:21:03;;;;;;;2.03;1.83;;;13.70;99.90;;;;;;5014644;28;20906;-83
2022/05/05 10:23:39;;;;;;;1.53;1.30;;;13.80;99.90;;;;;;5014658;28;20440;-83
2022/05/05 10:26:08;;;;;;;1.30;1.10;;;13.70;99.90;;;;;;5015095;28;20451;-83
2022/05/05 10:28:39;;;;;;;1.57;1.33;;;13.70;99.90;;;;;;5014480;28;20486;-83
2022/05/05 10:31:11;;;;;;;3.33;1.70;;;13.70;99.90;;;;;;5014436;28;20958;-83
2022/05/05 10:34:02;;;;;;;3.60;2.80;;;13.70;99.90;;;;;;5091630;28;20563;-83
2022/05/05 10:36:30;;;;;;;3.00;2.33;;;13.70;99.90;;;;;;5090814;28;20423;-83
2022/05/05 10:38:57;;;;;;;5.13;1.63;;;13.70;99.90;;;;;;5090907;28;20464;-83
2022/05/05 10:41:42;;;;;;;3.70;1.63;;;13.80;99.90;;;;;;5090501;28;20420;-83
2022/05/05 10:44:22;;;;;;;1.83;1.73;;;13.90;99.90;;;;;;5090774;28;20424;-83
2022/05/05 10:46:57;;;;;;;4.00;1.37;;;13.90;99.90;;;;;;5090730;28;20438;-83
2022/05/05 10:49:46;;;;;;;1.43;0.90;;;13.90;99.90;;;;;;5090706;28;20467;-83
2022/05/05 10:52:30;;;;;;;5.40;1.70;;;13.90;99.90;;;;;;5090816;28;20482;-83
2022/05/05 10:54:57;;;;;;;2.33;1.50;;;13.90;99.90;;;;;;5090693;28;20443;-83
2022/05/05 10:57:43;;;;;;;5.60;1.23;;;14.00;99.90;;;;;;5090610;28;20475;-83
2022/05/05 11:00:10;;;;;;;3.33;1.90;;;14.00;99.90;;;;;;5090407;28;20506;-83
2022/05/05 11:02:38;;;;;;;1.77;1.33;;;13.90;99.90;;;;;;5090437;28;20570;-83
2022/05/05 11:05:36;;;;;;;2.30;1.30;;;13.90;99.90;;;;;;5091418;28;20460;-83
2022/05/05 11:08:32;;;;;;;2.30;2.10;;;13.90;99.90;;;;;;5055461;28;20544;-83
2022/05/05 11:13:44;;;;;;;3.20;1.80;;;13.80;99.90;;;;;;5090925;28;20395;-83
2022/05/05 11:22:07;;;;;;;1.93;1.37;;;13.60;99.90;;;;;;5090364;28;20456;-84
2022/05/05 11:24:34;;;;;;;3.30;1.80;;;13.50;99.90;;;;;;5090890;28;20471;-83
2022/05/05 11:27:01;;;;;;;5.20;1.60;;;13.50;99.90;;;;;;5090561;28;20797;-84
2022/05/05 11:29:31;;;;;;;2.00;1.20;;;13.60;99.90;;;;;;5090219;28;20468;-83
2022/05/05 11:31:59;;;;;;;2.93;1.77;;;13.50;99.90;;;;;;5089955;28;20463;-84
2022/05/05 11:34:33;;;;;;;3.00;1.50;;;13.50;99.90;;;;;;5089997;28;20447;-84
2022/05/05 11:37:01;;;;;;;1.90;1.03;;;13.40;99.90;;;;;;5089801;28;20836;-84
2022/05/05 11:39:31;;;;;;;2.40;1.80;;;13.40;99.90;;;;;;5089650;28;20468;-84
2022/05/05 11:41:59;;;;;;;3.33;1.73;;;13.40;99.90;;;;;;5089875;28;20951;-84
2022/05/05 11:44:27;;;;;;;1.80;1.10;;;13.40;99.90;;;;;;5079815;28;20445;-84
2022/05/05 11:46:54;;;;;;;8.20;2.57;;;13.40;99.90;;;;;;5076075;28;20796;-83
2022/05/05 11:49:22;;;;;;;1.53;1.20;;;13.40;99.90;;;;;;5075669;28;20472;-84
2022/05/05 11:51:49;;;;;;;3.53;1.23;;;13.50;99.90;;;;;;5075871;28;20452;-84
2022/05/05 11:54:24;;;;;;;2.50;1.10;;;13.50;99.90;;;;;;5076308;28;20433;-84
2022/05/05 11:56:53;;;;;;;1.73;1.63;;;13.60;99.90;;;;;;5076249;28;20885;-84
2022/05/05 12:02:10;;;;;;;1.50;0.87;;;13.70;99.90;;;;;;5075562;28;20471;-83
2022/05/05 12:04:39;;;;;;;2.20;1.37;;;13.90;99.90;;;;;;5075748;28;20854;-84
2022/05/05 12:07:08;;;;;;;4.23;2.13;;;14.00;99.90;;;;;;5075740;28;20440;-84
2022/05/05 12:09:34;;;;;;;2.80;1.60;;;14.10;99.90;;;;;;5075321;28;21118;-84
2022/05/05 12:12:16;;;;;;;4.03;2.20;;;14.30;99.90;;;;;;5075560;28;20452;-84
2022/05/05 12:14:48;;;;;;;4.63;2.20;;;14.50;99.90;;;;;;5075536;28;20440;-84
2022/05/05 12:17:18;;;;;;;1.93;1.60;;;14.80;99.90;;;;;;5075538;28;20446;-84
2022/05/05 12:19:46;;;;;;;2.77;1.77;;;15.10;99.90;;;;;;5075676;28;20465;-84
2022/05/05 12:22:13;;;;;;;3.77;1.30;;;15.40;99.90;;;;;;5075444;28;20572;-84
2022/05/05 12:24:46;;;;;;;2.07;1.50;;;15.60;99.90;;;;;;5075329;28;20487;-84
2022/05/05 12:27:14;;;;;;;3.07;2.10;;;15.80;99.90;;;;;;5075331;28;20465;-84
2022/05/05 12:29:43;;;;;;;3.83;2.10;;;16.00;99.90;;;;;;5075081;28;20519;-84
2022/05/05 12:32:11;;;;;;;3.63;2.03;;;16.20;99.90;;;;;;5074910;28;20477;-84
2022/05/05 12:34:39;;;;;;;7.37;3.40;;;16.20;99.90;;;;;;5075133;28;20449;-84
2022/05/05 12:37:14;;;;;;;3.50;2.03;;;16.20;99.90;;;;;;5074774;28;20923;-84
2022/05/05 12:40:05;;;;;;;5.23;2.67;;;16.10;99.90;;;;;;5074872;28;20506;-84
2022/05/05 12:42:41;;;;;;;3.37;2.13;;;15.90;99.90;;;;;;5059751;28;20477;-84
2022/05/05 12:45:13;;;;;;;3.10;1.50;;;15.90;99.90;;;;;;5075051;28;20441;-84
2022/05/05 12:47:41;;;;;;;2.23;1.90;;;15.90;99.90;;;;;;5074820;28;20441;-84
2022/05/05 12:50:30;;;;;;;3.50;1.83;;;16.00;99.90;;;;;;5074410;28;21009;-84
2022/05/05 13:01:21;;;;;;;3.07;2.30;;;15.50;99.90;;;;;;5074655;28;20475;-83
2022/05/05 13:03:48;;;;;;;3.87;2.10;;;15.50;99.90;;;;;;5074549;28;20472;-84
2022/05/05 13:06:15;;;;;;;4.20;2.13;;;15.40;99.90;;;;;;5074527;28;20433;-83
2022/05/05 13:08:42;;;;;;;7.50;2.40;;;15.40;99.90;;;;;;5074385;28;20473;-84
2022/05/05 13:11:09;;;;;;;3.17;2.47;;;15.50;99.90;;;;;;5074531;28;20452;-83
2022/05/05 13:13:37;;;;;;;4.20;2.13;;;15.60;99.90;;;;;;5074461;28;20421;-83
2022/05/05 13:16:05;;;;;;;3.10;2.63;;;15.60;99.90;;;;;;5074428;28;20447;-85
2022/05/05 13:18:31;;;;;;;3.00;1.97;;;15.50;99.90;;;;;;5075076;28;20437;-84
2022/05/05 13:20:58;;;;;;;3.30;2.43;;;15.50;99.90;;;;;;5074421;28;20457;-83
2022/05/05 13:23:25;;;;;;;2.53;1.50;;;15.60;99.90;;;;;;5074184;28;20460;-84
2022/05/05 13:25:51;;;;;;;4.83;2.23;;;15.70;99.90;;;;;;5074099;28;20444;-85
2022/05/05 13:28:18;;;;;;;4.90;2.20;;;15.90;99.90;;;;;;5074189;28;20424;-83
2022/05/05 13:30:46;;;;;;;1.80;1.57;;;16.00;99.90;;;;;;5074096;28;20473;-84
2022/05/05 13:33:13;;;;;;;2.00;1.80;;;16.00;99.90;;;;;;5073528;28;20476;-83
2022/05/05 13:35:40;;;;;;;4.10;1.97;;;16.00;99.90;;;;;;5073658;28;20453;-84
2022/05/05 13:38:07;;;;;;;4.30;1.93;;;16.00;99.90;;;;;;5073933;28;20436;-83
2022/05/05 13:40:33;;;;;;;2.80;1.53;;;16.00;99.90;;;;;;5073503;28;20469;-84
2022/05/05 13:43:00;;;;;;;2.10;2.00;;;16.00;99.90;;;;;;5074260;28;20484;-83
2022/05/05 13:45:27;;;;;;;3.20;2.83;;;15.90;99.90;;;;;;5073462;28;20964;-83
2022/05/05 13:47:55;;;;;;;5.07;2.60;;;15.90;99.90;;;;;;5073784;28;20468;-83
2022/05/05 13:50:22;;;;;;;3.50;2.00;;;15.90;99.90;;;;;;5073277;28;20835;-83